sensor_id;sensor_type;location;lat;lon;timestamp;P1;durP1;ratioP1;P2;durP2;ratioP2
79124;SDS011;68527;39.470;-0.376;2023-10-19T00:00:46;1.70;;;1.00;;
79124;SDS011;68527;39.470;-0.376;2023-10-19T00:03:15;2.60;;;1.00;;
79124;SDS011;68527;39.470;-0.376;2023-10-19T00:05:41;2.30;;;1.00;;
79124;SDS011;68527;39.470;-0.376;2023-10-19T00:08:07;2.50;;;1.00;;
79124;SDS011;68527;39.470;-0.376;2023-10-19T00:10:39;2.60;;;1.00;;
79124;SDS011;68527;39.470;-0.376;2023-10-19T00:13:08;2.10;;;0.90;;
79124;SDS011;68527;39.470;-0.376;2023-10-19T00:15:35;2.10;;;1.00;;
79124;SDS011;68527;39.470;-0.376;2023-10-19T00:18:20;2.30;;;1.10;;
79124;SDS011;68527;39.470;-0.376;2023-10-19T00:20:48;2.50;;;1.10;;
79124;SDS011;68527;39.470;-0.376;2023-10-19T00:23:18;1.90;;;1.10;;
79124;SDS011;68527;39.470;-0.376;2023-10-19T00:26:07;2.50;;;1.00;;
79124;SDS011;68527;39.470;-0.376;2023-10-19T00:28:42;2.10;;;0.90;;
79124;SDS011;68527;39.470;-0.376;2023-10-19T00:31:14;1.90;;;1.00;;
79124;SDS011;68527;39.470;-0.376;2023-10-19T00:33:40;1.20;;;0.80;;
79124;SDS011;68527;39.470;-0.376;2023-10-19T00:36:09;2.90;;;0.80;;
79124;SDS011;68527;39.470;-0.376;2023-10-19T00:38:39;2.30;;;0.90;;
79124;SDS011;68527;39.470;-0.376;2023-10-19T00:41:07;2.60;;;1.10;;
79124;SDS011;68527;39.470;-0.376;2023-10-19T00:43:42;2.10;;;0.80;;
79124;SDS011;68527;39.470;-0.376;2023-10-19T00:46:09;2.00;;;1.30;;
79124;SDS011;68527;39.470;-0.376;2023-10-19T00:48:49;2.40;;;1.00;;
79124;SDS011;68527;39.470;-0.376;2023-10-19T00:51:20;1.20;;;0.80;;
79124;SDS011;68527;39.470;-0.376;2023-10-19T00:54:12;2.60;;;1.20;;
79124;SDS011;68527;39.470;-0.376;2023-10-19T00:56:42;2.70;;;1.00;;
79124;SDS011;68527;39.470;-0.376;2023-10-19T00:59:13;2.00;;;1.00;;
79124;SDS011;68527;39.470;-0.376;2023-10-19T01:01:45;2.00;;;1.10;;
79124;SDS011;68527;39.470;-0.376;2023-10-19T01:04:13;2.10;;;1.00;;
79124;SDS011;68527;39.470;-0.376;2023-10-19T01:06:43;2.40;;;1.00;;
79124;SDS011;68527;39.470;-0.376;2023-10-19T01:09:10;2.60;;;1.00;;
79124;SDS011;68527;39.470;-0.376;2023-10-19T01:11:40;1.70;;;0.90;;
79124;SDS011;68527;39.470;-0.376;2023-10-19T01:14:19;2.20;;;1.00;;
79124;SDS011;68527;39.470;-0.376;2023-10-19T01:16:47;1.30;;;0.80;;
79124;SDS011;68527;39.470;-0.376;2023-10-19T01:19:14;2.50;;;1.10;;
79124;SDS011;68527;39.470;-0.376;2023-10-19T01:21:43;2.60;;;1.00;;
79124;SDS011;68527;39.470;-0.376;2023-10-19T01:24:20;2.20;;;0.90;;
79124;SDS011;68527;39.470;-0.376;2023-10-19T01:27:04;2.40;;;1.00;;
79124;SDS011;68527;39.470;-0.376;2023-10-19T01:29:33;2.30;;;0.90;;
79124;SDS011;68527;39.470;-0.376;2023-10-19T01:32:00;1.70;;;0.80;;
79124;SDS011;68527;39.470;-0.376;2023-10-19T01:34:34;1.90;;;1.00;;
79124;SDS011;68527;39.470;-0.376;2023-10-19T01:37:00;2.60;;;1.10;;
79124;SDS011;68527;39.470;-0.376;2023-10-19T01:39:32;2.00;;;0.70;;
79124;SDS011;68527;39.470;-0.376;2023-10-19T01:42:00;1.60;;;0.70;;
79124;SDS011;68527;39.470;-0.376;2023-10-19T01:44:26;2.60;;;1.00;;
79124;SDS011;68527;39.470;-0.376;2023-10-19T01:46:52;2.00;;;1.10;;
79124;SDS011;68527;39.470;-0.376;2023-10-19T01:49:18;2.20;;;0.90;;
79124;SDS011;68527;39.470;-0.376;2023-10-19T01:51:53;2.00;;;0.90;;
79124;SDS011;68527;39.470;-0.376;2023-10-19T01:54:20;2.50;;;0.90;;
79124;SDS011;68527;39.470;-0.376;2023-10-19T01:56:52;1.50;;;0.70;;
79124;SDS011;68527;39.470;-0.376;2023-10-19T01:59:25;1.50;;;0.80;;
79124;SDS011;68527;39.470;-0.376;2023-10-19T02:01:55;2.50;;;0.80;;
79124;SDS011;68527;39.470;-0.376;2023-10-19T02:04:22;2.80;;;1.00;;
79124;SDS011;68527;39.470;-0.376;2023-10-19T02:06:48;2.50;;;0.80;;
79124;SDS011;68527;39.470;-0.376;2023-10-19T02:09:17;4.20;;;1.10;;
79124;SDS011;68527;39.470;-0.376;2023-10-19T02:12:02;1.80;;;0.70;;
79124;SDS011;68527;39.470;-0.376;2023-10-19T02:14:31;5.20;;;1.00;;
79124;SDS011;68527;39.470;-0.376;2023-10-19T02:16:57;2.30;;;0.90;;
79124;SDS011;68527;39.470;-0.376;2023-10-19T02:19:25;2.10;;;0.80;;
79124;SDS011;68527;39.470;-0.376;2023-10-19T02:21:52;3.00;;;0.80;;
79124;SDS011;68527;39.470;-0.376;2023-10-19T02:24:21;3.00;;;0.90;;
79124;SDS011;68527;39.470;-0.376;2023-10-19T02:26:48;3.40;;;0.70;;
79124;SDS011;68527;39.470;-0.376;2023-10-19T02:29:16;3.80;;;0.80;;
79124;SDS011;68527;39.470;-0.376;2023-10-19T02:31:44;1.90;;;0.70;;
79124;SDS011;68527;39.470;-0.376;2023-10-19T02:34:10;1.70;;;0.60;;
79124;SDS011;68527;39.470;-0.376;2023-10-19T02:36:40;2.30;;;0.70;;
79124;SDS011;68527;39.470;-0.376;2023-10-19T02:39:07;2.10;;;1.00;;
79124;SDS011;68527;39.470;-0.376;2023-10-19T02:41:38;2.60;;;0.70;;
79124;SDS011;68527;39.470;-0.376;2023-10-19T02:44:08;2.00;;;0.70;;
79124;SDS011;68527;39.470;-0.376;2023-10-19T02:46:45;2.40;;;0.70;;
79124;SDS011;68527;39.470;-0.376;2023-10-19T02:49:12;2.30;;;0.80;;
79124;SDS011;68527;39.470;-0.376;2023-10-19T02:51:41;1.60;;;0.80;;
79124;SDS011;68527;39.470;-0.376;2023-10-19T02:54:11;2.00;;;0.90;;
79124;SDS011;68527;39.470;-0.376;2023-10-19T02:56:47;2.30;;;0.70;;
79124;SDS011;68527;39.470;-0.376;2023-10-19T02:59:17;1.00;;;0.60;;
79124;SDS011;68527;39.470;-0.376;2023-10-19T03:01:47;2.40;;;0.70;;
79124;SDS011;68527;39.470;-0.376;2023-10-19T03:04:13;1.60;;;0.40;;
79124;SDS011;68527;39.470;-0.376;2023-10-19T03:06:38;2.10;;;0.70;;
79124;SDS011;68527;39.470;-0.376;2023-10-19T03:09:06;1.70;;;0.50;;
79124;SDS011;68527;39.470;-0.376;2023-10-19T03:11:40;1.70;;;0.60;;
79124;SDS011;68527;39.470;-0.376;2023-10-19T03:14:07;1.70;;;0.80;;
79124;SDS011;68527;39.470;-0.376;2023-10-19T03:16:33;3.20;;;0.80;;
79124;SDS011;68527;39.470;-0.376;2023-10-19T03:19:01;3.00;;;0.80;;
79124;SDS011;68527;39.470;-0.376;2023-10-19T03:21:26;1.60;;;0.70;;
79124;SDS011;68527;39.470;-0.376;2023-10-19T03:23:55;1.60;;;0.50;;
79124;SDS011;68527;39.470;-0.376;2023-10-19T03:26:27;1.50;;;0.50;;
79124;SDS011;68527;39.470;-0.376;2023-10-19T03:28:59;1.40;;;0.60;;
79124;SDS011;68527;39.470;-0.376;2023-10-19T03:31:32;1.90;;;0.60;;
79124;SDS011;68527;39.470;-0.376;2023-10-19T03:33:58;2.70;;;0.70;;
79124;SDS011;68527;39.470;-0.376;2023-10-19T03:36:24;1.70;;;0.70;;
79124;SDS011;68527;39.470;-0.376;2023-10-19T03:38:51;0.90;;;0.30;;
79124;SDS011;68527;39.470;-0.376;2023-10-19T03:41:18;1.50;;;0.70;;
79124;SDS011;68527;39.470;-0.376;2023-10-19T03:43:51;1.50;;;0.50;;
79124;SDS011;68527;39.470;-0.376;2023-10-19T03:46:20;2.50;;;0.90;;
79124;SDS011;68527;39.470;-0.376;2023-10-19T03:48:59;1.50;;;0.60;;
79124;SDS011;68527;39.470;-0.376;2023-10-19T03:51:32;1.50;;;0.60;;
79124;SDS011;68527;39.470;-0.376;2023-10-19T03:54:05;1.10;;;0.60;;
79124;SDS011;68527;39.470;-0.376;2023-10-19T03:56:50;1.40;;;0.50;;
79124;SDS011;68527;39.470;-0.376;2023-10-19T03:59:17;1.70;;;0.60;;
79124;SDS011;68527;39.470;-0.376;2023-10-19T04:01:43;1.70;;;0.50;;
79124;SDS011;68527;39.470;-0.376;2023-10-19T04:04:09;2.40;;;0.70;;
79124;SDS011;68527;39.470;-0.376;2023-10-19T04:06:36;3.20;;;0.70;;
79124;SDS011;68527;39.470;-0.376;2023-10-19T04:09:03;1.80;;;0.70;;
79124;SDS011;68527;39.470;-0.376;2023-10-19T04:11:32;2.20;;;0.80;;
79124;SDS011;68527;39.470;-0.376;2023-10-19T04:14:10;1.80;;;0.70;;
79124;SDS011;68527;39.470;-0.376;2023-10-19T04:16:35;1.80;;;0.60;;
79124;SDS011;68527;39.470;-0.376;2023-10-19T04:19:02;1.10;;;0.40;;
79124;SDS011;68527;39.470;-0.376;2023-10-19T04:21:29;1.50;;;0.70;;
79124;SDS011;68527;39.470;-0.376;2023-10-19T04:23:55;1.40;;;0.50;;
79124;SDS011;68527;39.470;-0.376;2023-10-19T04:26:22;1.40;;;0.50;;
79124;SDS011;68527;39.470;-0.376;2023-10-19T04:28:49;1.90;;;0.70;;
79124;SDS011;68527;39.470;-0.376;2023-10-19T04:31:16;1.50;;;0.70;;
79124;SDS011;68527;39.470;-0.376;2023-10-19T04:33:43;2.10;;;0.50;;
79124;SDS011;68527;39.470;-0.376;2023-10-19T04:36:14;1.20;;;0.70;;
79124;SDS011;68527;39.470;-0.376;2023-10-19T04:38:40;1.60;;;0.50;;
79124;SDS011;68527;39.470;-0.376;2023-10-19T04:41:09;2.60;;;0.80;;
79124;SDS011;68527;39.470;-0.376;2023-10-19T04:43:36;1.80;;;0.60;;
79124;SDS011;68527;39.470;-0.376;2023-10-19T04:46:09;0.90;;;0.40;;
79124;SDS011;68527;39.470;-0.376;2023-10-19T04:48:39;2.60;;;0.60;;
79124;SDS011;68527;39.470;-0.376;2023-10-19T04:51:08;2.20;;;0.60;;
79124;SDS011;68527;39.470;-0.376;2023-10-19T04:53:36;1.70;;;0.50;;
79124;SDS011;68527;39.470;-0.376;2023-10-19T04:56:03;1.90;;;0.80;;
79124;SDS011;68527;39.470;-0.376;2023-10-19T04:58:30;2.40;;;0.90;;
79124;SDS011;68527;39.470;-0.376;2023-10-19T05:00:56;1.70;;;0.70;;
79124;SDS011;68527;39.470;-0.376;2023-10-19T05:03:24;2.50;;;0.60;;
79124;SDS011;68527;39.470;-0.376;2023-10-19T05:05:50;1.60;;;0.50;;
79124;SDS011;68527;39.470;-0.376;2023-10-19T05:08:16;1.60;;;0.60;;
79124;SDS011;68527;39.470;-0.376;2023-10-19T05:10:42;1.50;;;0.50;;
79124;SDS011;68527;39.470;-0.376;2023-10-19T05:13:07;2.30;;;0.40;;
79124;SDS011;68527;39.470;-0.376;2023-10-19T05:15:33;2.40;;;0.50;;
79124;SDS011;68527;39.470;-0.376;2023-10-19T05:17:59;1.90;;;0.70;;
79124;SDS011;68527;39.470;-0.376;2023-10-19T05:20:26;1.60;;;0.60;;
79124;SDS011;68527;39.470;-0.376;2023-10-19T05:22:51;4.10;;;0.80;;
79124;SDS011;68527;39.470;-0.376;2023-10-19T05:25:17;2.40;;;0.60;;
79124;SDS011;68527;39.470;-0.376;2023-10-19T05:27:42;4.30;;;0.80;;
79124;SDS011;68527;39.470;-0.376;2023-10-19T05:30:11;3.80;;;0.70;;
79124;SDS011;68527;39.470;-0.376;2023-10-19T05:32:37;2.80;;;0.60;;
79124;SDS011;68527;39.470;-0.376;2023-10-19T05:35:03;3.20;;;0.70;;
79124;SDS011;68527;39.470;-0.376;2023-10-19T05:37:30;4.00;;;0.80;;
79124;SDS011;68527;39.470;-0.376;2023-10-19T05:39:56;7.70;;;1.10;;
79124;SDS011;68527;39.470;-0.376;2023-10-19T05:42:22;4.10;;;1.00;;
79124;SDS011;68527;39.470;-0.376;2023-10-19T05:44:48;11.40;;;1.50;;
79124;SDS011;68527;39.470;-0.376;2023-10-19T05:47:13;6.20;;;1.70;;
79124;SDS011;68527;39.470;-0.376;2023-10-19T05:49:39;5.20;;;1.30;;
79124;SDS011;68527;39.470;-0.376;2023-10-19T05:52:04;4.90;;;1.50;;
79124;SDS011;68527;39.470;-0.376;2023-10-19T05:54:30;5.30;;;1.70;;
79124;SDS011;68527;39.470;-0.376;2023-10-19T05:56:55;3.60;;;1.10;;
79124;SDS011;68527;39.470;-0.376;2023-10-19T05:59:22;6.30;;;1.60;;
79124;SDS011;68527;39.470;-0.376;2023-10-19T06:01:51;5.70;;;1.40;;
79124;SDS011;68527;39.470;-0.376;2023-10-19T06:04:17;6.00;;;2.00;;
79124;SDS011;68527;39.470;-0.376;2023-10-19T06:06:42;6.80;;;1.80;;
79124;SDS011;68527;39.470;-0.376;2023-10-19T06:09:08;9.10;;;2.40;;
79124;SDS011;68527;39.470;-0.376;2023-10-19T06:11:34;7.60;;;2.00;;
79124;SDS011;68527;39.470;-0.376;2023-10-19T06:14:03;6.00;;;2.00;;
79124;SDS011;68527;39.470;-0.376;2023-10-19T06:16:32;7.40;;;2.60;;
79124;SDS011;68527;39.470;-0.376;2023-10-19T06:19:00;6.50;;;2.30;;
79124;SDS011;68527;39.470;-0.376;2023-10-19T06:21:26;8.70;;;2.30;;
79124;SDS011;68527;39.470;-0.376;2023-10-19T06:23:51;7.70;;;2.40;;
79124;SDS011;68527;39.470;-0.376;2023-10-19T06:26:18;6.20;;;1.90;;
79124;SDS011;68527;39.470;-0.376;2023-10-19T06:28:44;8.30;;;2.40;;
79124;SDS011;68527;39.470;-0.376;2023-10-19T06:31:10;5.60;;;2.10;;
79124;SDS011;68527;39.470;-0.376;2023-10-19T06:33:35;7.80;;;2.50;;
79124;SDS011;68527;39.470;-0.376;2023-10-19T06:36:01;7.90;;;2.00;;
79124;SDS011;68527;39.470;-0.376;2023-10-19T06:38:31;8.20;;;2.50;;
79124;SDS011;68527;39.470;-0.376;2023-10-19T06:40:57;7.50;;;2.60;;
79124;SDS011;68527;39.470;-0.376;2023-10-19T06:43:22;7.00;;;2.40;;
79124;SDS011;68527;39.470;-0.376;2023-10-19T06:45:53;7.60;;;2.10;;
79124;SDS011;68527;39.470;-0.376;2023-10-19T06:48:20;6.20;;;2.10;;
79124;SDS011;68527;39.470;-0.376;2023-10-19T06:50:46;8.50;;;2.40;;
79124;SDS011;68527;39.470;-0.376;2023-10-19T06:53:11;5.80;;;2.10;;
79124;SDS011;68527;39.470;-0.376;2023-10-19T06:55:37;7.90;;;2.30;;
79124;SDS011;68527;39.470;-0.376;2023-10-19T06:58:03;5.70;;;2.00;;
79124;SDS011;68527;39.470;-0.376;2023-10-19T07:00:29;5.30;;;2.00;;
79124;SDS011;68527;39.470;-0.376;2023-10-19T07:02:56;6.10;;;2.20;;
79124;SDS011;68527;39.470;-0.376;2023-10-19T07:05:24;7.90;;;2.20;;
79124;SDS011;68527;39.470;-0.376;2023-10-19T07:07:51;8.40;;;2.30;;
79124;SDS011;68527;39.470;-0.376;2023-10-19T07:10:19;8.80;;;2.10;;
79124;SDS011;68527;39.470;-0.376;2023-10-19T07:12:45;6.00;;;2.20;;
79124;SDS011;68527;39.470;-0.376;2023-10-19T07:15:13;6.20;;;2.30;;
79124;SDS011;68527;39.470;-0.376;2023-10-19T07:17:39;5.30;;;2.00;;
79124;SDS011;68527;39.470;-0.376;2023-10-19T07:20:09;10.20;;;2.00;;
79124;SDS011;68527;39.470;-0.376;2023-10-19T07:22:56;8.90;;;2.00;;
79124;SDS011;68527;39.470;-0.376;2023-10-19T07:25:24;9.10;;;2.30;;
79124;SDS011;68527;39.470;-0.376;2023-10-19T07:27:51;6.30;;;2.10;;
79124;SDS011;68527;39.470;-0.376;2023-10-19T07:30:18;7.10;;;1.90;;
79124;SDS011;68527;39.470;-0.376;2023-10-19T07:32:51;5.80;;;1.90;;
79124;SDS011;68527;39.470;-0.376;2023-10-19T07:35:19;8.10;;;2.20;;
79124;SDS011;68527;39.470;-0.376;2023-10-19T07:37:46;5.50;;;2.20;;
79124;SDS011;68527;39.470;-0.376;2023-10-19T07:40:13;6.20;;;2.10;;
79124;SDS011;68527;39.470;-0.376;2023-10-19T07:42:39;7.80;;;2.00;;
79124;SDS011;68527;39.470;-0.376;2023-10-19T07:45:06;8.10;;;2.10;;
79124;SDS011;68527;39.470;-0.376;2023-10-19T07:47:39;5.30;;;2.00;;
79124;SDS011;68527;39.470;-0.376;2023-10-19T07:50:07;6.40;;;2.20;;
79124;SDS011;68527;39.470;-0.376;2023-10-19T07:52:37;8.00;;;2.00;;
79124;SDS011;68527;39.470;-0.376;2023-10-19T07:55:04;6.50;;;2.00;;
79124;SDS011;68527;39.470;-0.376;2023-10-19T07:57:32;4.30;;;1.70;;
79124;SDS011;68527;39.470;-0.376;2023-10-19T07:59:59;5.50;;;2.00;;
79124;SDS011;68527;39.470;-0.376;2023-10-19T08:02:25;6.90;;;1.80;;
79124;SDS011;68527;39.470;-0.376;2023-10-19T08:04:50;3.40;;;1.60;;
79124;SDS011;68527;39.470;-0.376;2023-10-19T08:07:17;9.20;;;2.40;;
79124;SDS011;68527;39.470;-0.376;2023-10-19T08:09:42;7.80;;;2.10;;
79124;SDS011;68527;39.470;-0.376;2023-10-19T08:12:09;5.20;;;2.30;;
79124;SDS011;68527;39.470;-0.376;2023-10-19T08:14:35;4.10;;;1.70;;
79124;SDS011;68527;39.470;-0.376;2023-10-19T08:17:01;6.20;;;1.60;;
79124;SDS011;68527;39.470;-0.376;2023-10-19T08:19:28;7.70;;;1.70;;
79124;SDS011;68527;39.470;-0.376;2023-10-19T08:21:56;5.90;;;2.20;;
79124;SDS011;68527;39.470;-0.376;2023-10-19T08:24:22;7.40;;;2.40;;
79124;SDS011;68527;39.470;-0.376;2023-10-19T08:26:48;6.90;;;2.00;;
79124;SDS011;68527;39.470;-0.376;2023-10-19T08:29:15;4.10;;;1.80;;
79124;SDS011;68527;39.470;-0.376;2023-10-19T08:31:42;5.70;;;1.70;;
79124;SDS011;68527;39.470;-0.376;2023-10-19T08:34:10;5.30;;;2.10;;
79124;SDS011;68527;39.470;-0.376;2023-10-19T08:36:39;7.10;;;2.20;;
79124;SDS011;68527;39.470;-0.376;2023-10-19T08:39:05;5.60;;;1.80;;
79124;SDS011;68527;39.470;-0.376;2023-10-19T08:41:37;5.80;;;2.10;;
79124;SDS011;68527;39.470;-0.376;2023-10-19T08:44:07;3.80;;;1.70;;
79124;SDS011;68527;39.470;-0.376;2023-10-19T08:46:38;5.00;;;2.20;;
79124;SDS011;68527;39.470;-0.376;2023-10-19T08:49:08;4.30;;;1.60;;
79124;SDS011;68527;39.470;-0.376;2023-10-19T08:51:38;5.30;;;1.70;;
79124;SDS011;68527;39.470;-0.376;2023-10-19T08:54:04;4.20;;;2.10;;
79124;SDS011;68527;39.470;-0.376;2023-10-19T08:56:31;3.80;;;1.60;;
79124;SDS011;68527;39.470;-0.376;2023-10-19T08:58:59;7.60;;;2.00;;
79124;SDS011;68527;39.470;-0.376;2023-10-19T09:01:26;4.60;;;1.70;;
79124;SDS011;68527;39.470;-0.376;2023-10-19T09:03:53;4.60;;;1.60;;
79124;SDS011;68527;39.470;-0.376;2023-10-19T09:06:20;5.50;;;2.20;;
79124;SDS011;68527;39.470;-0.376;2023-10-19T09:08:47;4.80;;;1.70;;
79124;SDS011;68527;39.470;-0.376;2023-10-19T09:11:14;3.30;;;1.60;;
79124;SDS011;68527;39.470;-0.376;2023-10-19T09:13:49;5.20;;;2.00;;
79124;SDS011;68527;39.470;-0.376;2023-10-19T09:16:16;6.50;;;1.60;;
79124;SDS011;68527;39.470;-0.376;2023-10-19T09:18:43;6.50;;;2.20;;
79124;SDS011;68527;39.470;-0.376;2023-10-19T09:21:15;3.00;;;1.50;;
79124;SDS011;68527;39.470;-0.376;2023-10-19T09:23:51;5.50;;;2.30;;
79124;SDS011;68527;39.470;-0.376;2023-10-19T09:26:21;3.90;;;2.00;;
79124;SDS011;68527;39.470;-0.376;2023-10-19T09:28:48;3.80;;;1.90;;
79124;SDS011;68527;39.470;-0.376;2023-10-19T09:31:14;4.40;;;1.40;;
79124;SDS011;68527;39.470;-0.376;2023-10-19T09:33:41;4.80;;;1.50;;
79124;SDS011;68527;39.470;-0.376;2023-10-19T09:36:09;5.70;;;2.20;;
79124;SDS011;68527;39.470;-0.376;2023-10-19T09:38:46;5.10;;;1.60;;
79124;SDS011;68527;39.470;-0.376;2023-10-19T09:41:20;5.00;;;1.60;;
79124;SDS011;68527;39.470;-0.376;2023-10-19T09:43:47;4.30;;;1.70;;
79124;SDS011;68527;39.470;-0.376;2023-10-19T09:46:20;4.60;;;2.20;;
79124;SDS011;68527;39.470;-0.376;2023-10-19T09:48:46;3.80;;;1.50;;
79124;SDS011;68527;39.470;-0.376;2023-10-19T09:51:17;4.20;;;1.90;;
79124;SDS011;68527;39.470;-0.376;2023-10-19T09:53:45;4.00;;;1.40;;
79124;SDS011;68527;39.470;-0.376;2023-10-19T09:56:34;4.40;;;1.60;;
79124;SDS011;68527;39.470;-0.376;2023-10-19T09:59:02;5.10;;;1.70;;
79124;SDS011;68527;39.470;-0.376;2023-10-19T10:04:43;5.80;;;1.70;;
79124;SDS011;68527;39.470;-0.376;2023-10-19T10:07:14;4.10;;;1.70;;
79124;SDS011;68527;39.470;-0.376;2023-10-19T10:09:43;7.20;;;2.10;;
79124;SDS011;68527;39.470;-0.376;2023-10-19T10:12:21;4.20;;;1.70;;
79124;SDS011;68527;39.470;-0.376;2023-10-19T10:14:55;4.60;;;2.00;;
79124;SDS011;68527;39.470;-0.376;2023-10-19T10:17:24;5.90;;;2.20;;
79124;SDS011;68527;39.470;-0.376;2023-10-19T10:22:43;4.50;;;1.90;;
79124;SDS011;68527;39.470;-0.376;2023-10-19T10:28:04;5.20;;;2.40;;
79124;SDS011;68527;39.470;-0.376;2023-10-19T10:30:30;6.20;;;2.20;;
79124;SDS011;68527;39.470;-0.376;2023-10-19T10:32:56;5.40;;;2.10;;
79124;SDS011;68527;39.470;-0.376;2023-10-19T10:38:05;4.40;;;2.00;;
79124;SDS011;68527;39.470;-0.376;2023-10-19T10:40:41;5.20;;;1.70;;
79124;SDS011;68527;39.470;-0.376;2023-10-19T10:43:08;3.70;;;1.80;;
79124;SDS011;68527;39.470;-0.376;2023-10-19T10:45:33;4.50;;;1.70;;
79124;SDS011;68527;39.470;-0.376;2023-10-19T10:47:58;4.60;;;1.80;;
79124;SDS011;68527;39.470;-0.376;2023-10-19T10:50:26;4.10;;;1.90;;
79124;SDS011;68527;39.470;-0.376;2023-10-19T10:52:53;5.60;;;2.00;;
79124;SDS011;68527;39.470;-0.376;2023-10-19T10:55:23;4.80;;;2.00;;
79124;SDS011;68527;39.470;-0.376;2023-10-19T10:57:52;4.70;;;1.90;;
79124;SDS011;68527;39.470;-0.376;2023-10-19T11:00:19;5.10;;;1.80;;
79124;SDS011;68527;39.470;-0.376;2023-10-19T11:02:46;4.70;;;2.10;;
79124;SDS011;68527;39.470;-0.376;2023-10-19T11:05:12;4.50;;;1.80;;
79124;SDS011;68527;39.470;-0.376;2023-10-19T11:08:02;3.20;;;1.70;;
79124;SDS011;68527;39.470;-0.376;2023-10-19T11:10:46;6.40;;;1.80;;
79124;SDS011;68527;39.470;-0.376;2023-10-19T11:13:12;3.90;;;1.70;;
79124;SDS011;68527;39.470;-0.376;2023-10-19T11:15:39;4.60;;;2.10;;
79124;SDS011;68527;39.470;-0.376;2023-10-19T11:18:27;6.50;;;2.00;;
79124;SDS011;68527;39.470;-0.376;2023-10-19T11:21:07;4.30;;;1.70;;
79124;SDS011;68527;39.470;-0.376;2023-10-19T11:23:43;3.50;;;1.90;;
79124;SDS011;68527;39.470;-0.376;2023-10-19T11:26:11;4.60;;;1.90;;
79124;SDS011;68527;39.470;-0.376;2023-10-19T11:28:37;5.50;;;2.40;;
79124;SDS011;68527;39.470;-0.376;2023-10-19T11:31:18;4.80;;;2.00;;
79124;SDS011;68527;39.470;-0.376;2023-10-19T11:33:47;6.10;;;2.10;;
79124;SDS011;68527;39.470;-0.376;2023-10-19T11:36:16;3.20;;;2.00;;
79124;SDS011;68527;39.470;-0.376;2023-10-19T11:38:44;5.20;;;2.20;;
79124;SDS011;68527;39.470;-0.376;2023-10-19T11:41:10;5.30;;;1.70;;
79124;SDS011;68527;39.470;-0.376;2023-10-19T11:43:38;3.30;;;1.60;;
79124;SDS011;68527;39.470;-0.376;2023-10-19T11:46:09;4.40;;;1.70;;
79124;SDS011;68527;39.470;-0.376;2023-10-19T11:48:36;4.00;;;1.80;;
79124;SDS011;68527;39.470;-0.376;2023-10-19T11:51:02;3.70;;;1.60;;
79124;SDS011;68527;39.470;-0.376;2023-10-19T11:53:35;3.50;;;1.90;;
79124;SDS011;68527;39.470;-0.376;2023-10-19T11:56:05;4.10;;;1.80;;
79124;SDS011;68527;39.470;-0.376;2023-10-19T11:58:35;4.50;;;2.40;;
79124;SDS011;68527;39.470;-0.376;2023-10-19T12:01:02;3.90;;;1.70;;
79124;SDS011;68527;39.470;-0.376;2023-10-19T12:03:30;4.30;;;1.90;;
79124;SDS011;68527;39.470;-0.376;2023-10-19T12:05:56;6.10;;;1.80;;
79124;SDS011;68527;39.470;-0.376;2023-10-19T12:08:22;6.20;;;2.10;;
79124;SDS011;68527;39.470;-0.376;2023-10-19T12:10:49;5.30;;;2.00;;
79124;SDS011;68527;39.470;-0.376;2023-10-19T12:13:15;4.60;;;1.90;;
79124;SDS011;68527;39.470;-0.376;2023-10-19T12:15:41;4.40;;;1.70;;
79124;SDS011;68527;39.470;-0.376;2023-10-19T12:18:06;4.00;;;2.10;;
79124;SDS011;68527;39.470;-0.376;2023-10-19T12:20:33;4.10;;;2.20;;
79124;SDS011;68527;39.470;-0.376;2023-10-19T12:23:00;3.80;;;1.70;;
79124;SDS011;68527;39.470;-0.376;2023-10-19T12:25:26;4.70;;;1.90;;
79124;SDS011;68527;39.470;-0.376;2023-10-19T12:27:56;3.50;;;1.70;;
79124;SDS011;68527;39.470;-0.376;2023-10-19T12:30:22;3.60;;;2.00;;
79124;SDS011;68527;39.470;-0.376;2023-10-19T12:32:51;6.90;;;2.10;;
79124;SDS011;68527;39.470;-0.376;2023-10-19T12:35:17;3.70;;;2.00;;
79124;SDS011;68527;39.470;-0.376;2023-10-19T12:37:45;4.70;;;2.00;;
79124;SDS011;68527;39.470;-0.376;2023-10-19T12:40:17;2.90;;;1.80;;
79124;SDS011;68527;39.470;-0.376;2023-10-19T12:42:52;3.60;;;1.80;;
79124;SDS011;68527;39.470;-0.376;2023-10-19T12:45:22;3.40;;;1.60;;
79124;SDS011;68527;39.470;-0.376;2023-10-19T12:47:49;3.30;;;1.90;;
79124;SDS011;68527;39.470;-0.376;2023-10-19T12:50:14;4.70;;;2.10;;
79124;SDS011;68527;39.470;-0.376;2023-10-19T12:52:41;3.30;;;1.90;;
79124;SDS011;68527;39.470;-0.376;2023-10-19T12:55:07;4.70;;;1.90;;
79124;SDS011;68527;39.470;-0.376;2023-10-19T12:57:34;4.70;;;1.80;;
79124;SDS011;68527;39.470;-0.376;2023-10-19T13:00:00;5.40;;;2.20;;
79124;SDS011;68527;39.470;-0.376;2023-10-19T13:02:45;4.50;;;2.20;;
79124;SDS011;68527;39.470;-0.376;2023-10-19T13:05:10;3.80;;;1.80;;
79124;SDS011;68527;39.470;-0.376;2023-10-19T13:07:41;4.80;;;2.10;;
79124;SDS011;68527;39.470;-0.376;2023-10-19T13:10:07;4.40;;;1.90;;
79124;SDS011;68527;39.470;-0.376;2023-10-19T13:12:33;2.90;;;1.90;;
79124;SDS011;68527;39.470;-0.376;2023-10-19T13:14:58;4.40;;;1.80;;
79124;SDS011;68527;39.470;-0.376;2023-10-19T13:17:24;3.90;;;1.40;;
79124;SDS011;68527;39.470;-0.376;2023-10-19T13:19:50;4.30;;;1.90;;
79124;SDS011;68527;39.470;-0.376;2023-10-19T13:22:21;3.80;;;1.80;;
79124;SDS011;68527;39.470;-0.376;2023-10-19T13:24:47;6.30;;;2.00;;
79124;SDS011;68527;39.470;-0.376;2023-10-19T13:27:13;3.10;;;1.50;;
79124;SDS011;68527;39.470;-0.376;2023-10-19T13:29:39;3.80;;;1.90;;
79124;SDS011;68527;39.470;-0.376;2023-10-19T13:32:06;2.50;;;1.50;;
79124;SDS011;68527;39.470;-0.376;2023-10-19T13:34:32;4.30;;;1.80;;
79124;SDS011;68527;39.470;-0.376;2023-10-19T13:36:58;3.10;;;1.80;;
79124;SDS011;68527;39.470;-0.376;2023-10-19T13:39:23;4.50;;;1.90;;
79124;SDS011;68527;39.470;-0.376;2023-10-19T13:41:53;3.20;;;1.80;;
79124;SDS011;68527;39.470;-0.376;2023-10-19T13:44:18;3.70;;;1.90;;
79124;SDS011;68527;39.470;-0.376;2023-10-19T13:46:46;4.90;;;1.80;;
79124;SDS011;68527;39.470;-0.376;2023-10-19T13:49:12;4.20;;;1.70;;
79124;SDS011;68527;39.470;-0.376;2023-10-19T13:51:38;4.30;;;2.00;;
79124;SDS011;68527;39.470;-0.376;2023-10-19T13:54:04;3.10;;;1.90;;
79124;SDS011;68527;39.470;-0.376;2023-10-19T13:56:31;3.70;;;1.70;;
79124;SDS011;68527;39.470;-0.376;2023-10-19T13:58:56;4.90;;;1.70;;
79124;SDS011;68527;39.470;-0.376;2023-10-19T14:01:22;3.80;;;2.00;;
79124;SDS011;68527;39.470;-0.376;2023-10-19T14:03:53;5.30;;;1.70;;
79124;SDS011;68527;39.470;-0.376;2023-10-19T14:06:20;3.10;;;1.50;;
79124;SDS011;68527;39.470;-0.376;2023-10-19T14:08:45;4.20;;;1.60;;
79124;SDS011;68527;39.470;-0.376;2023-10-19T14:11:13;5.50;;;1.80;;
79124;SDS011;68527;39.470;-0.376;2023-10-19T14:13:39;2.60;;;1.50;;
79124;SDS011;68527;39.470;-0.376;2023-10-19T14:16:07;3.40;;;1.50;;
79124;SDS011;68527;39.470;-0.376;2023-10-19T14:18:34;3.50;;;1.50;;
79124;SDS011;68527;39.470;-0.376;2023-10-19T14:21:00;3.50;;;1.90;;
79124;SDS011;68527;39.470;-0.376;2023-10-19T14:23:26;3.40;;;1.80;;
79124;SDS011;68527;39.470;-0.376;2023-10-19T14:25:53;3.50;;;1.50;;
79124;SDS011;68527;39.470;-0.376;2023-10-19T14:28:18;4.00;;;1.50;;
79124;SDS011;68527;39.470;-0.376;2023-10-19T14:30:44;4.40;;;1.80;;
79124;SDS011;68527;39.470;-0.376;2023-10-19T14:33:10;4.60;;;1.80;;
79124;SDS011;68527;39.470;-0.376;2023-10-19T14:35:36;3.50;;;2.00;;
79124;SDS011;68527;39.470;-0.376;2023-10-19T14:38:04;5.40;;;2.00;;
79124;SDS011;68527;39.470;-0.376;2023-10-19T14:40:31;4.40;;;2.10;;
79124;SDS011;68527;39.470;-0.376;2023-10-19T14:42:57;4.00;;;1.90;;
79124;SDS011;68527;39.470;-0.376;2023-10-19T14:45:24;3.30;;;1.70;;
79124;SDS011;68527;39.470;-0.376;2023-10-19T14:47:51;2.90;;;1.60;;
79124;SDS011;68527;39.470;-0.376;2023-10-19T14:50:17;4.00;;;2.00;;
79124;SDS011;68527;39.470;-0.376;2023-10-19T14:52:45;4.40;;;1.90;;